Time;durP1;ratioP1;P1;durP2;ratioP2;P2;SDS_P1;SDS_P2;PMS_P1;PMS_P2;Temp;Humidity;BMP_temperature;BMP_pressure;BME280_temperature;BME280_humidity;BME280_pressure;Samples;Min_cycle;Max_cycle;Signal;HPM_P1;HPM_P2
2023/04/13 00:02:26;;;;;;;;;;;7.20;99.90;;;;;;5024650;28;20000;-68
2023/04/13 00:04:53;;;;;;;;;;;7.10;99.90;;;;;;5024909;28;19921;-68
2023/04/13 00:07:21;;;;;;;;;;;7.10;99.90;;;;;;5024629;28;19928;-68
2023/04/13 00:09:49;;;;;;;;;;;7.00;99.90;;;;;;5024407;28;19921;-68
2023/04/13 00:12:20;;;;;;;;;;;7.00;99.90;;;;;;5024633;28;19928;-68
2023/04/13 00:14:49;;;;;;;;;;;7.00;99.90;;;;;;5024631;28;19997;-68
2023/04/13 00:17:16;;;;;;;;;;;7.00;99.90;;;;;;5024170;28;19959;-68
2023/04/13 00:19:46;;;;;;;;;;;7.00;99.90;;;;;;5024546;28;19952;-69
2023/04/13 00:22:15;;;;;;;;;;;7.00;99.90;;;;;;5023699;28;19921;-68
2023/04/13 00:24:42;;;;;;;;;;;7.00;99.90;;;;;;5023954;28;20268;-69
2023/04/13 00:27:12;;;;;;;;;;;7.10;99.90;;;;;;5023763;28;19929;-69
2023/04/13 00:29:39;;;;;;;;;;;7.00;99.90;;;;;;5023435;28;19928;-68
2023/04/13 00:32:06;;;;;;;;;;;7.00;99.90;;;;;;5025007;28;19921;-68
2023/04/13 00:34:32;;;;;;;;;;;7.00;99.90;;;;;;5024322;28;19928;-68
2023/04/13 00:37:00;;;;;;;;;;;7.00;99.90;;;;;;5024058;28;19980;-69
2023/04/13 00:39:29;;;;;;;;;;;7.00;99.90;;;;;;5024363;28;19922;-68
2023/04/13 00:41:58;;;;;;;;;;;7.00;99.90;;;;;;5024049;28;20226;-69
2023/04/13 00:44:27;;;;;;;;;;;7.00;99.90;;;;;;5024097;28;20116;-68
2023/04/13 00:46:55;;;;;;;;;;;7.00;99.90;;;;;;5024734;28;19928;-68
2023/04/13 00:49:22;;;;;;;;;;;7.00;99.90;;;;;;5023838;28;19956;-68
2023/04/13 00:51:49;;;;;;;;;;;6.90;99.90;;;;;;5023125;28;20175;-68
2023/04/13 00:54:15;;;;;;;;;;;6.90;99.90;;;;;;5023909;28;20292;-68
2023/04/13 00:56:42;;;;;;;;;;;6.90;99.90;;;;;;5023871;28;19921;-68
2023/04/13 00:59:10;;;;;;;;;;;6.90;99.90;;;;;;5024014;28;19921;-68
2023/04/13 01:01:44;;;;;;;;;;;6.90;99.90;;;;;;5023591;28;19958;-68
2023/04/13 01:04:12;;;;;;;;;;;6.80;99.90;;;;;;5023684;28;19949;-68
2023/04/13 01:06:41;;;;;;;;;;;6.90;99.90;;;;;;5023663;28;19928;-68
2023/04/13 01:09:11;;;;;;;;;;;6.90;99.90;;;;;;5023902;28;19964;-68
2023/04/13 01:11:40;;;;;;;;;;;6.80;99.90;;;;;;5023450;28;20209;-68
2023/04/13 01:14:09;;;;;;;;;;;6.80;99.90;;;;;;5023452;28;19960;-68
2023/04/13 01:16:39;;;;;;;;;;;6.80;99.90;;;;;;5023900;28;20180;-68
2023/04/13 01:19:10;;;;;;;;;;;6.90;99.90;;;;;;5023278;28;20005;-69
2023/04/13 01:21:37;;;;;;;;;;;6.90;99.90;;;;;;5022700;28;19928;-69
2023/04/13 01:24:08;;;;;;;;;;;6.90;99.90;;;;;;5023602;28;19989;-69
2023/04/13 01:26:37;;;;;;;;;;;6.90;99.90;;;;;;5022720;28;20200;-69
2023/04/13 01:29:05;;;;;;;;;;;6.90;99.90;;;;;;5023253;28;19921;-69
2023/04/13 01:31:34;;;;;;;;;;;6.80;99.90;;;;;;5023057;28;19960;-68
2023/04/13 01:34:01;;;;;;;;;;;6.80;99.90;;;;;;5023168;28;20208;-68
2023/04/13 01:36:28;;;;;;;;;;;6.90;99.90;;;;;;5026132;28;20213;-70
2023/04/13 01:38:55;;;;;;;;;;;6.90;99.90;;;;;;5027394;28;19921;-68
2023/04/13 01:41:22;;;;;;;;;;;6.90;99.90;;;;;;5027480;28;19922;-68
2023/04/13 01:43:49;;;;;;;;;;;6.90;99.90;;;;;;5027358;28;19925;-68
2023/04/13 01:46:18;;;;;;;;;;;6.80;99.90;;;;;;5027169;28;20202;-68
2023/04/13 01:48:46;;;;;;;;;;;6.80;99.90;;;;;;5027165;28;20432;-68
2023/04/13 01:51:15;;;;;;;;;;;6.80;99.90;;;;;;5026884;28;19988;-68
2023/04/13 01:53:42;;;;;;;;;;;6.80;99.90;;;;;;5026969;28;19927;-68
2023/04/13 01:56:11;;;;;;;;;;;6.80;99.90;;;;;;5026737;28;20256;-68
2023/04/13 01:58:39;;;;;;;;;;;6.70;99.90;;;;;;5027082;28;19984;-68
2023/04/13 02:01:06;;;;;;;;;;;6.70;99.90;;;;;;5027271;28;19921;-68
2023/04/13 02:03:34;;;;;;;;;;;6.60;99.90;;;;;;5027616;28;19993;-68
2023/04/13 02:06:01;;;;;;;;;;;6.70;99.90;;;;;;5026885;28;19964;-69
2023/04/13 02:08:28;;;;;;;;;;;6.70;99.90;;;;;;5026849;28;19921;-68
2023/04/13 02:10:55;;;;;;;;;;;6.70;99.90;;;;;;5026894;28;19922;-69
2023/04/13 02:13:22;;;;;;;;;;;6.70;99.90;;;;;;5008757;28;19921;-68
2023/04/13 02:15:49;;;;;;;;;;;6.70;99.90;;;;;;5008869;28;19926;-69
2023/04/13 02:18:16;;;;;;;;;;;6.70;99.90;;;;;;5026323;28;19955;-69
2023/04/13 02:20:44;;;;;;;;;;;6.70;99.90;;;;;;5026909;28;19928;-68
2023/04/13 02:23:13;;;;;;;;;;;6.60;99.90;;;;;;5021066;28;19921;-68
2023/04/13 02:25:40;;;;;;;;;;;6.70;99.90;;;;;;5026643;28;20156;-68
2023/04/13 02:28:08;;;;;;;;;;;6.60;99.90;;;;;;5006186;28;19989;-67
2023/04/13 02:30:36;;;;;;;;;;;6.60;99.90;;;;;;5019205;28;19989;-68
2023/04/13 02:33:03;;;;;;;;;;;6.60;99.90;;;;;;5025820;28;19964;-68
2023/04/13 02:35:29;;;;;;;;;;;6.50;99.90;;;;;;5026590;28;19957;-68
2023/04/13 02:37:58;;;;;;;;;;;6.50;99.90;;;;;;5026253;28;20171;-68
2023/04/13 02:40:24;;;;;;;;;;;6.50;99.90;;;;;;5026471;28;19922;-68
2023/04/13 02:42:51;;;;;;;;;;;6.50;99.90;;;;;;5026429;28;19988;-68
2023/04/13 02:45:18;;;;;;;;;;;6.50;99.90;;;;;;5026125;28;19953;-68
2023/04/13 02:47:45;;;;;;;;;;;6.50;99.90;;;;;;5025192;28;19952;-68
2023/04/13 02:50:12;;;;;;;;;;;6.40;99.90;;;;;;5026298;28;19952;-68
2023/04/13 02:52:39;;;;;;;;;;;6.50;99.90;;;;;;5025814;28;19978;-68
2023/04/13 02:55:08;;;;;;;;;;;6.40;99.90;;;;;;5026254;28;19959;-69
2023/04/13 02:57:35;;;;;;;;;;;6.40;99.90;;;;;;5025894;28;20008;-68
2023/04/13 03:00:06;;;;;;;;;;;6.30;99.90;;;;;;5025818;28;20000;-68
2023/04/13 03:02:34;;;;;;;;;;;6.30;99.90;;;;;;5025511;28;19921;-68
2023/04/13 03:05:01;;;;;;;;;;;6.30;99.90;;;;;;5025657;28;19922;-69
2023/04/13 03:07:28;;;;;;;;;;;6.30;99.90;;;;;;5025678;28;19928;-68
2023/04/13 03:09:54;;;;;;;;;;;6.30;99.90;;;;;;5025733;28;19980;-68
2023/04/13 03:12:22;;;;;;;;;;;6.30;99.90;;;;;;5007039;28;19986;-68
2023/04/13 03:14:50;;;;;;;;;;;6.30;99.90;;;;;;5006195;28;19964;-68
2023/04/13 03:17:17;;;;;;;;;;;6.30;99.90;;;;;;5013150;28;19921;-68
2023/04/13 03:19:45;;;;;;;;;;;6.30;99.90;;;;;;5025466;28;20210;-68
2023/04/13 03:22:12;;;;;;;;;;;6.30;99.90;;;;;;5025625;28;19984;-68
2023/04/13 03:24:39;;;;;;;;;;;6.30;99.90;;;;;;5025416;28;19929;-69
2023/04/13 03:27:06;;;;;;;;;;;6.30;99.90;;;;;;5025085;28;20136;-69
2023/04/13 03:29:34;;;;;;;;;;;6.20;99.90;;;;;;5025760;28;19984;-69
2023/04/13 03:32:00;;;;;;;;;;;6.20;99.90;;;;;;5025244;28;19944;-68
2023/04/13 03:34:27;;;;;;;;;;;6.20;99.90;;;;;;5025451;28;19984;-68
2023/04/13 03:36:54;;;;;;;;;;;6.20;99.90;;;;;;5025011;28;19984;-68
2023/04/13 03:39:20;;;;;;;;;;;6.20;99.90;;;;;;5025191;28;20217;-68
2023/04/13 03:41:47;;;;;;;;;;;6.10;99.90;;;;;;5025316;28;19921;-68
2023/04/13 03:44:14;;;;;;;;;;;6.10;99.90;;;;;;5025297;28;19976;-68
2023/04/13 03:46:42;;;;;;;;;;;6.10;99.90;;;;;;5026323;28;19956;-68
2023/04/13 03:49:09;;;;;;;;;;;6.10;99.90;;;;;;5025200;28;20090;-69
2023/04/13 03:51:36;;;;;;;;;;;6.10;99.90;;;;;;5025237;28;19944;-68
2023/04/13 03:54:03;;;;;;;;;;;6.00;99.90;;;;;;5024765;28;20231;-68
2023/04/13 03:56:29;;;;;;;;;;;6.00;99.90;;;;;;5024640;28;19928;-68
2023/04/13 03:58:56;;;;;;;;;;;6.00;99.90;;;;;;5024123;28;19928;-69
2023/04/13 04:01:23;;;;;;;;;;;6.00;99.90;;;;;;5024855;28;19985;-68
2023/04/13 04:03:54;;;;;;;;;;;6.00;99.90;;;;;;5024486;28;19927;-68
2023/04/13 04:06:21;;;;;;;;;;;6.00;99.90;;;;;;5024639;28;19925;-68
2023/04/13 04:08:48;;;;;;;;;;;6.00;99.90;;;;;;5024933;28;19992;-69
2023/04/13 04:11:15;;;;;;;;;;;6.00;99.90;;;;;;5024834;28;19921;-69
2023/04/13 04:13:41;;;;;;;;;;;5.80;99.90;;;;;;5024174;28;20220;-68
2023/04/13 04:16:10;;;;;;;;;;;5.90;99.90;;;;;;5024150;28;19922;-68
2023/04/13 04:18:36;;;;;;;;;;;5.80;99.90;;;;;;5015079;28;19921;-68
2023/04/13 04:21:05;;;;;;;;;;;5.70;99.90;;;;;;5024706;28;20123;-68
2023/04/13 04:23:33;;;;;;;;;;;5.70;99.90;;;;;;5024548;28;19922;-68
2023/04/13 04:26:01;;;;;;;;;;;5.70;99.90;;;;;;5023879;28;19922;-68
2023/04/13 04:28:29;;;;;;;;;;;5.70;99.90;;;;;;5024483;28;19984;-70
2023/04/13 04:30:59;;;;;;;;;;;5.80;99.90;;;;;;5024379;28;19983;-68
2023/04/13 04:33:26;;;;;;;;;;;5.80;99.90;;;;;;5025287;28;19925;-68
2023/04/13 04:35:53;;;;;;;;;;;5.70;99.90;;;;;;5023964;28;20231;-69
2023/04/13 04:38:22;;;;;;;;;;;5.70;99.90;;;;;;5023776;28;20000;-67
2023/04/13 04:40:49;;;;;;;;;;;5.70;99.90;;;;;;5020162;28;20120;-69
2023/04/13 04:43:16;;;;;;;;;;;5.80;99.90;;;;;;5024022;28;19984;-69
2023/04/13 04:45:45;;;;;;;;;;;5.70;99.90;;;;;;5024156;28;20037;-68
2023/04/13 04:48:12;;;;;;;;;;;5.70;99.90;;;;;;5023844;28;19960;-69
2023/04/13 04:50:43;;;;;;;;;;;5.70;99.90;;;;;;5023961;28;19921;-68
2023/04/13 04:53:10;;;;;;;;;;;5.60;99.90;;;;;;5024049;28;19922;-68
2023/04/13 04:55:38;;;;;;;;;;;5.70;99.90;;;;;;5024056;28;20224;-69
2023/04/13 04:58:05;;;;;;;;;;;5.70;99.90;;;;;;5023666;28;19921;-69
2023/04/13 05:00:32;;;;;;;;;;;5.70;99.90;;;;;;5023894;28;19922;-69
2023/04/13 05:02:59;;;;;;;;;;;5.70;99.90;;;;;;5024600;28;19980;-69
2023/04/13 05:05:26;;;;;;;;;;;5.70;99.90;;;;;;5023802;28;20235;-69
2023/04/13 05:07:52;;;;;;;;;;;5.70;99.90;;;;;;5023410;28;19951;-68
2023/04/13 05:10:19;;;;;;;;;;;5.70;99.90;;;;;;5023624;28;19928;-69
2023/04/13 05:12:47;;;;;;;;;;;5.70;99.90;;;;;;5023744;28;19921;-69
2023/04/13 05:15:14;;;;;;;;;;;5.80;99.90;;;;;;5023728;28;19922;-69
2023/04/13 05:17:45;;;;;;;;;;;5.70;99.90;;;;;;5024811;28;19929;-68
2023/04/13 05:20:12;;;;;;;;;;;5.80;99.90;;;;;;5018631;28;19928;-68
2023/04/13 05:22:39;;;;;;;;;;;5.70;99.90;;;;;;5022359;28;19964;-67
2023/04/13 05:25:06;;;;;;;;;;;5.70;99.90;;;;;;5023647;28;19997;-69
2023/04/13 05:27:33;;;;;;;;;;;5.70;99.90;;;;;;5023391;28;19960;-67
2023/04/13 05:30:02;;;;;;;;;;;5.80;99.90;;;;;;5023288;28;19992;-68
2023/04/13 05:32:28;;;;;;;;;;;5.80;99.90;;;;;;5023309;28;20078;-67
2023/04/13 05:34:55;;;;;;;;;;;5.80;99.90;;;;;;5023487;28;19921;-68
2023/04/13 05:37:22;;;;;;;;;;;5.80;99.90;;;;;;5023088;28;20227;-67
2023/04/13 05:39:48;;;;;;;;;;;5.80;99.90;;;;;;5023566;28;19957;-68
2023/04/13 05:42:15;;;;;;;;;;;5.80;99.90;;;;;;5023494;28;19921;-68
2023/04/13 05:44:42;;;;;;;;;;;5.80;99.90;;;;;;5023311;28;20208;-68
2023/04/13 05:47:10;;;;;;;;;;;5.90;99.90;;;;;;5023105;28;19985;-67
2023/04/13 05:49:37;;;;;;;;;;;5.90;99.90;;;;;;5023534;28;19925;-67
2023/04/13 05:52:06;;;;;;;;;;;5.90;99.90;;;;;;5023141;28;19921;-67
2023/04/13 05:54:33;;;;;;;;;;;5.90;99.90;;;;;;5022973;28;20213;-67
2023/04/13 05:56:59;;;;;;;;;;;6.00;99.90;;;;;;5022991;28;19959;-69
2023/04/13 05:59:26;;;;;;;;;;;6.00;99.90;;;;;;5023434;28;19988;-67
2023/04/13 06:01:52;;;;;;;;;;;6.00;99.90;;;;;;5022910;28;20228;-68
2023/04/13 06:04:21;;;;;;;;;;;6.10;99.90;;;;;;5023411;28;19983;-68
2023/04/13 06:06:47;;;;;;;;;;;6.10;99.90;;;;;;5023143;28;19929;-68
2023/04/13 06:09:14;;;;;;;;;;;6.20;99.90;;;;;;5023245;28;20175;-67
2023/04/13 06:11:41;;;;;;;;;;;6.30;99.90;;;;;;5023005;28;20224;-67
2023/04/13 06:14:08;;;;;;;;;;;6.30;99.90;;;;;;5023195;28;19922;-67
2023/04/13 06:16:34;;;;;;;;;;;6.30;99.90;;;;;;5022704;28;20206;-68
2023/04/13 06:19:01;;;;;;;;;;;6.30;99.90;;;;;;5022861;28;20212;-68
2023/04/13 06:21:29;;;;;;;;;;;6.30;99.90;;;;;;5024439;28;19992;-68
2023/04/13 06:23:55;;;;;;;;;;;6.30;99.90;;;;;;5026769;28;19921;-68
2023/04/13 06:26:22;;;;;;;;;;;6.40;99.90;;;;;;5026637;28;19957;-68
2023/04/13 06:28:49;;;;;;;;;;;6.40;99.90;;;;;;5026456;28;19928;-68
2023/04/13 06:31:16;;;;;;;;;;;6.40;99.90;;;;;;5026779;28;19921;-68
2023/04/13 06:33:43;;;;;;;;;;;6.40;99.90;;;;;;5026182;28;19933;-67
2023/04/13 06:36:10;;;;;;;;;;;6.40;99.90;;;;;;5026516;28;20157;-67
2023/04/13 06:38:38;;;;;;;;;;;6.40;99.90;;;;;;5026227;28;19945;-71
2023/04/13 06:41:05;;;;;;;;;;;6.40;99.90;;;;;;5026680;28;19921;-68
2023/04/13 06:43:32;;;;;;;;;;;6.40;99.90;;;;;;5026337;28;20209;-68
2023/04/13 06:45:59;;;;;;;;;;;6.50;99.90;;;;;;5026304;28;19965;-68
2023/04/13 06:48:26;;;;;;;;;;;6.50;99.90;;;;;;5025680;28;19927;-68
2023/04/13 06:50:55;;;;;;;;;;;6.60;99.90;;;;;;5006705;28;19922;-68
2023/04/13 06:53:21;;;;;;;;;;;6.70;99.90;;;;;;5005612;28;19922;-69
2023/04/13 06:55:49;;;;;;;;;;;6.70;99.90;;;;;;5006508;28;19922;-68
2023/04/13 06:58:16;;;;;;;;;;;6.70;99.90;;;;;;5006561;28;19926;-68
2023/04/13 07:00:43;;;;;;;;;;;6.80;99.90;;;;;;5006543;28;19953;-67
2023/04/13 07:03:09;;;;;;;;;;;6.90;99.90;;;;;;5020474;28;19984;-68
2023/04/13 07:05:37;;;;;;;;;;;7.00;99.90;;;;;;5025660;28;20267;-68
2023/04/13 07:08:04;;;;;;;;;;;7.10;99.90;;;;;;5025789;28;19953;-67
2023/04/13 07:10:31;;;;;;;;;;;7.10;99.90;;;;;;5025914;28;19929;-67
2023/04/13 07:12:59;;;;;;;;;;;7.20;99.90;;;;;;5025885;28;19981;-68
2023/04/13 07:15:25;;;;;;;;;;;7.10;99.90;;;;;;5025461;28;19928;-68
2023/04/13 07:17:54;;;;;;;;;;;7.10;99.90;;;;;;5025378;28;19953;-68
2023/04/13 07:20:21;;;;;;;;;;;7.10;99.90;;;;;;5025470;28;20263;-68
2023/04/13 07:22:47;;;;;;;;;;;7.20;99.90;;;;;;5025587;28;19928;-67
2023/04/13 07:25:14;;;;;;;;;;;7.20;99.90;;;;;;5025725;28;20157;-68
2023/04/13 07:27:41;;;;;;;;;;;7.20;99.90;;;;;;5025559;28;19922;-68
2023/04/13 07:30:09;;;;;;;;;;;7.20;99.90;;;;;;5025338;28;19968;-68
2023/04/13 07:32:36;;;;;;;;;;;7.10;99.90;;;;;;5024821;28;19951;-68
2023/04/13 07:35:02;;;;;;;;;;;7.10;99.90;;;;;;5025383;28;19971;-68
2023/04/13 07:37:29;;;;;;;;;;;7.10;99.90;;;;;;5025267;28;19985;-68
2023/04/13 07:39:56;;;;;;;;;;;7.20;99.90;;;;;;5025304;28;19980;-68
2023/04/13 07:42:22;;;;;;;;;;;7.20;99.90;;;;;;5025365;28;20006;-68
2023/04/13 07:44:51;;;;;;;;;;;7.10;99.90;;;;;;5025291;28;20164;-69
2023/04/13 07:47:19;;;;;;;;;;;7.10;99.90;;;;;;5024902;28;19929;-67
2023/04/13 07:49:46;;;;;;;;;;;7.00;99.90;;;;;;5024067;28;19922;-68
2023/04/13 07:52:12;;;;;;;;;;;7.00;99.90;;;;;;5024670;28;19959;-67
2023/04/13 07:54:42;;;;;;;;;;;7.00;99.90;;;;;;5024323;28;19981;-67
2023/04/13 07:57:09;;;;;;;;;;;7.00;99.90;;;;;;5024708;28;19989;-68
2023/04/13 07:59:35;;;;;;;;;;;7.00;99.90;;;;;;5025094;28;19959;-68
2023/04/13 08:02:03;;;;;;;;;;;7.20;99.90;;;;;;5025825;28;20120;-67
2023/04/13 08:04:31;;;;;;;;;;;7.20;99.90;;;;;;5024591;28;20221;-67
2023/04/13 08:07:02;;;;;;;;;;;7.30;99.90;;;;;;5024651;28;19930;-67
2023/04/13 08:09:31;;;;;;;;;;;7.30;99.90;;;;;;5024846;28;19928;-68
2023/04/13 08:11:58;;;;;;;;;;;7.40;99.90;;;;;;5024464;28;19921;-68
2023/04/13 08:14:24;;;;;;;;;;;7.50;99.90;;;;;;5024831;28;19992;-68
2023/04/13 08:16:51;;;;;;;;;;;7.60;99.90;;;;;;5023952;28;20260;-68
2023/04/13 08:19:18;;;;;;;;;;;7.50;99.90;;;;;;5024506;28;19957;-68
2023/04/13 08:21:46;;;;;;;;;;;7.50;99.90;;;;;;5024591;28;19952;-68
2023/04/13 08:24:12;;;;;;;;;;;7.60;99.90;;;;;;5024326;28;19933;-68
2023/04/13 08:26:39;;;;;;;;;;;7.50;99.90;;;;;;5024315;28;19928;-68
2023/04/13 08:29:06;;;;;;;;;;;7.50;99.90;;;;;;5024735;28;19988;-68
2023/04/13 08:31:32;;;;;;;;;;;7.50;99.90;;;;;;5025450;28;19925;-68
2023/04/13 08:33:59;;;;;;;;;;;7.50;99.90;;;;;;5024209;28;19985;-67
2023/04/13 08:36:26;;;;;;;;;;;7.50;99.90;;;;;;5024037;28;19980;-68
2023/04/13 08:38:54;;;;;;;;;;;7.50;99.90;;;;;;5024322;28;19925;-68
2023/04/13 08:41:21;;;;;;;;;;;7.50;99.90;;;;;;5024414;28;20231;-68
2023/04/13 08:43:49;;;;;;;;;;;7.50;99.90;;;;;;5023699;28;20000;-68
2023/04/13 08:46:18;;;;;;;;;;;7.60;99.90;;;;;;5023743;28;19980;-68
2023/04/13 08:48:45;;;;;;;;;;;7.60;99.90;;;;;;5023999;28;20195;-67
2023/04/13 08:51:13;;;;;;;;;;;7.60;99.90;;;;;;5024170;28;19921;-68
2023/04/13 08:53:41;;;;;;;;;;;7.60;99.90;;;;;;5023050;28;19963;-68
2023/04/13 08:56:09;;;;;;;;;;;7.70;99.90;;;;;;5023853;28;19921;-68
2023/04/13 08:58:36;;;;;;;;;;;7.70;99.90;;;;;;5023864;28;19921;-68
2023/04/13 09:01:05;;;;;;;;;;;7.80;99.90;;;;;;5024072;28;19927;-67
2023/04/13 09:03:34;;;;;;;;;;;7.90;99.90;;;;;;5023631;28;19921;-68
2023/04/13 09:06:03;;;;;;;;;;;7.90;99.90;;;;;;5023518;28;20197;-68
2023/04/13 09:08:34;;;;;;;;;;;7.90;99.90;;;;;;5023872;28;19928;-68
2023/04/13 09:11:01;;;;;;;;;;;8.00;99.90;;;;;;5023987;28;19921;-68
2023/04/13 09:13:29;;;;;;;;;;;8.10;99.90;;;;;;5023582;28;19921;-68
2023/04/13 09:15:56;;;;;;;;;;;8.20;99.90;;;;;;5023619;28;19936;-68
2023/04/13 09:18:22;;;;;;;;;;;8.30;99.90;;;;;;5023449;28;19985;-68
2023/04/13 09:20:56;;;;;;;;;;;8.30;99.90;;;;;;5023753;28;19957;-67
2023/04/13 09:23:23;;;;;;;;;;;8.30;99.90;;;;;;5023375;28;19926;-68
2023/04/13 09:25:50;;;;;;;;;;;8.50;99.90;;;;;;5023421;28;19947;-68
2023/04/13 09:28:17;;;;;;;;;;;8.50;99.90;;;;;;5023706;28;19929;-68
2023/04/13 09:30:45;;;;;;;;;;;8.50;99.90;;;;;;5023325;28;19925;-68
2023/04/13 09:33:14;;;;;;;;;;;8.60;99.90;;;;;;5024370;28;19927;-68
2023/04/13 09:35:41;;;;;;;;;;;8.60;99.90;;;;;;5023243;28;19929;-68
2023/04/13 09:38:10;;;;;;;;;;;8.60;99.90;;;;;;5023513;28;20023;-69
2023/04/13 09:40:47;;;;;;;;;;;8.60;99.90;;;;;;5023633;28;19921;-68
2023/04/13 09:43:13;;;;;;;;;;;8.60;99.90;;;;;;5023612;28;20076;-68
2023/04/13 09:45:44;;;;;;;;;;;8.60;99.90;;;;;;5023174;28;20292;-68
2023/04/13 09:48:17;;;;;;;;;;;8.50;99.90;;;;;;5023030;28;19928;-67
2023/04/13 09:50:44;;;;;;;;;;;8.40;99.90;;;;;;5022937;28;20232;-68
2023/04/13 09:53:11;;;;;;;;;;;8.40;99.90;;;;;;5021590;28;19921;-68
2023/04/13 09:55:39;;;;;;;;;;;8.50;99.90;;;;;;5021393;28;20231;-68
2023/04/13 09:58:08;;;;;;;;;;;8.60;99.90;;;;;;5026348;28;19921;-68
2023/04/13 10:00:36;;;;;;;;;;;8.70;99.90;;;;;;5026691;28;19928;-68
2023/04/13 10:03:05;;;;;;;;;;;8.70;99.90;;;;;;5024630;28;19988;-68
2023/04/13 10:05:34;;;;;;;;;;;8.70;99.90;;;;;;5026806;28;19921;-69
2023/04/13 10:08:01;;;;;;;;;;;8.70;99.90;;;;;;5025653;28;20390;-67
2023/04/13 10:10:28;;;;;;;;;;;8.60;99.90;;;;;;5025800;28;19922;-67
2023/04/13 10:12:56;;;;;;;;;;;8.50;99.90;;;;;;5026359;28;20094;-68
2023/04/13 10:15:28;;;;;;;;;;;8.50;99.90;;;;;;5026411;28;19930;-68
2023/04/13 10:17:58;;;;;;;;;;;8.50;99.90;;;;;;5025836;28;20239;-68
2023/04/13 10:20:25;;;;;;;;;;;8.60;99.90;;;;;;5026958;28;19928;-68
2023/04/13 10:22:54;;;;;;;;;;;8.50;99.90;;;;;;5026565;28;19922;-68
2023/04/13 10:25:20;;;;;;;;;;;8.50;99.90;;;;;;5026821;28;19953;-68
2023/04/13 10:27:55;;;;;;;;;;;8.60;99.90;;;;;;5026578;28;20258;-69
2023/04/13 10:30:22;;;;;;;;;;;8.60;99.90;;;;;;5026660;28;19992;-67
2023/04/13 10:32:49;;;;;;;;;;;8.70;99.90;;;;;;5026096;28;19922;-68
2023/04/13 10:35:16;;;;;;;;;;;8.80;99.90;;;;;;5026267;28;20123;-67
2023/04/13 10:37:44;;;;;;;;;;;8.80;99.90;;;;;;5026096;28;20209;-68
2023/04/13 10:40:15;;;;;;;;;;;8.80;99.90;;;;;;5026664;28;19925;-68
2023/04/13 10:42:43;;;;;;;;;;;8.80;99.90;;;;;;5026607;28;19949;-68
2023/04/13 10:45:17;;;;;;;;;;;8.80;99.90;;;;;;5026586;28;19922;-68
2023/04/13 10:47:43;;;;;;;;;;;8.80;99.90;;;;;;5025614;28;20087;-68
2023/04/13 10:50:16;;;;;;;;;;;8.80;99.90;;;;;;5025588;28;19922;-68
2023/04/13 10:52:53;;;;;;;;;;;8.90;99.90;;;;;;5026417;28;19921;-68
2023/04/13 10:55:22;;;;;;;;;;;8.90;99.90;;;;;;5025186;28;19996;-69
2023/04/13 10:57:49;;;;;;;;;;;8.80;99.90;;;;;;5026072;28;19921;-68
2023/04/13 11:00:20;;;;;;;;;;;8.90;99.90;;;;;;5026169;28;19953;-67
2023/04/13 11:02:48;;;;;;;;;;;8.90;99.90;;;;;;5025516;28;20232;-67
2023/04/13 11:05:15;;;;;;;;;;;8.90;99.90;;;;;;5026101;28;19929;-68
2023/04/13 11:07:44;;;;;;;;;;;9.00;99.90;;;;;;5025514;28;19953;-68
2023/04/13 11:10:10;;;;;;;;;;;9.10;99.90;;;;;;5026123;28;19925;-68
2023/04/13 11:12:39;;;;;;;;;;;9.20;99.90;;;;;;5025909;28;19921;-68
2023/04/13 11:15:08;;;;;;;;;;;9.30;99.90;;;;;;5025956;28;19928;-68
2023/04/13 11:17:35;;;;;;;;;;;9.30;99.90;;;;;;5025445;28;20113;-67
2023/04/13 11:20:05;;;;;;;;;;;9.30;99.90;;;;;;5025514;28;20260;-68
2023/04/13 11:22:35;;;;;;;;;;;9.30;99.90;;;;;;5025838;28;20175;-67
2023/04/13 11:25:06;;;;;;;;;;;9.20;99.90;;;;;;5005861;28;19929;-68
2023/04/13 11:27:32;;;;;;;;;;;9.10;99.90;;;;;;5005556;28;20210;-68
2023/04/13 11:30:03;;;;;;;;;;;9.10;99.90;;;;;;5006029;28;19928;-67
2023/04/13 11:32:31;;;;;;;;;;;9.10;99.90;;;;;;5016978;28;19929;-68
2023/04/13 11:35:04;;;;;;;;;;;9.00;99.90;;;;;;5025491;28;20201;-68
2023/04/13 11:37:35;;;;;;;;;;;9.00;99.90;;;;;;5025406;28;20304;-68
2023/04/13 11:40:13;;;;;;;;;;;8.90;99.90;;;;;;5025402;28;19964;-68
2023/04/13 11:42:41;;;;;;;;;;;8.90;99.90;;;;;;5025429;28;19922;-68
2023/04/13 11:45:10;;;;;;;;;;;8.90;99.90;;;;;;5025348;28;19921;-68
2023/04/13 11:47:36;;;;;;;;;;;8.80;99.90;;;;;;5026397;28;19976;-68
2023/04/13 11:50:03;;;;;;;;;;;8.60;99.90;;;;;;5025214;28;19980;-67
2023/04/13 11:52:31;;;;;;;;;;;8.50;99.90;;;;;;5024863;28;19921;-68
2023/04/13 11:54:58;;;;;;;;;;;8.50;99.90;;;;;;5024138;28;19980;-68
2023/04/13 11:57:25;;;;;;;;;;;8.50;99.90;;;;;;5024660;28;20235;-68
2023/04/13 11:59:52;;;;;;;;;;;8.50;99.90;;;;;;5025204;28;19928;-68
2023/04/13 12:02:26;;;;;;;;;;;8.50;99.90;;;;;;5024826;28;19922;-68
2023/04/13 12:04:53;;;;;;;;;;;8.50;99.90;;;;;;5017317;28;19980;-68
2023/04/13 12:07:20;;;;;;;;;;;8.60;99.90;;;;;;5024761;28;19984;-68
2023/04/13 12:09:47;;;;;;;;;;;8.50;99.90;;;;;;5024895;28;19968;-68
2023/04/13 12:12:17;;;;;;;;;;;8.50;99.90;;;;;;5024752;28;19964;-68
2023/04/13 12:14:51;;;;;;;;;;;8.60;99.90;;;;;;5023749;28;19957;-68
2023/04/13 12:17:17;;;;;;;;;;;8.70;99.90;;;;;;5024426;28;19992;-68
2023/04/13 12:19:49;;;;;;;;;;;8.70;99.90;;;;;;5023915;28;20146;-68
2023/04/13 12:22:16;;;;;;;;;;;8.80;99.90;;;;;;5024348;28;20227;-67
2023/04/13 12:24:42;;;;;;;;;;;8.80;99.90;;;;;;5024673;28;19921;-68
2023/04/13 12:27:09;;;;;;;;;;;8.70;99.90;;;;;;5024415;28;19989;-67
2023/04/13 12:29:39;;;;;;;;;;;8.90;99.90;;;;;;5024688;28;19921;-67
2023/04/13 12:32:10;;;;;;;;;;;8.90;99.90;;;;;;5023857;28;20225;-68
2023/04/13 12:34:37;;;;;;;;;;;8.90;99.90;;;;;;5024197;28;19928;-68
2023/04/13 12:37:05;;;;;;;;;;;8.90;99.90;;;;;;5023886;28;20116;-67
2023/04/13 12:39:32;;;;;;;;;;;9.00;99.90;;;;;;5024375;28;19979;-67
2023/04/13 12:42:00;;;;;;;;;;;9.00;99.90;;;;;;5024294;28;19964;-68
2023/04/13 12:44:26;;;;;;;;;;;9.20;99.90;;;;;;5024269;28;19922;-69
2023/04/13 12:46:53;;;;;;;;;;;9.30;99.90;;;;;;5023833;28;19922;-68
2023/04/13 12:49:20;;;;;;;;;;;9.50;99.90;;;;;;5023897;28;19960;-69
2023/04/13 12:51:46;;;;;;;;;;;9.70;99.90;;;;;;5024221;28;19928;-68
2023/04/13 12:54:16;;;;;;;;;;;9.80;99.90;;;;;;5023997;28;19988;-68
2023/04/13 12:56:43;;;;;;;;;;;10.00;99.90;;;;;;5004235;28;19968;-68
2023/04/13 12:59:10;;;;;;;;;;;10.20;99.90;;;;;;5004805;28;19976;-67
2023/04/13 13:01:36;;;;;;;;;;;10.30;99.90;;;;;;5007592;28;19993;-67
2023/04/13 13:04:03;;;;;;;;;;;10.20;99.90;;;;;;5024038;28;20173;-68
2023/04/13 13:06:30;;;;;;;;;;;10.20;99.90;;;;;;5023788;28;19993;-68
2023/04/13 13:08:57;;;;;;;;;;;10.00;99.90;;;;;;5024002;28;19921;-67
2023/04/13 13:11:25;;;;;;;;;;;9.70;99.90;;;;;;5023586;28;19925;-68
2023/04/13 13:13:52;;;;;;;;;;;9.40;99.90;;;;;;5023030;28;19988;-68
2023/04/13 13:16:19;;;;;;;;;;;9.30;99.90;;;;;;5023373;28;19971;-68
2023/04/13 13:18:45;;;;;;;;;;;9.20;99.90;;;;;;5023795;28;20169;-68
2023/04/13 13:21:12;;;;;;;;;;;9.20;99.90;;;;;;5023506;28;19988;-68
2023/04/13 13:23:39;;;;;;;;;;;9.20;99.90;;;;;;5023757;28;19992;-68
2023/04/13 13:26:05;;;;;;;;;;;9.30;99.90;;;;;;5023507;28;20160;-69
2023/04/13 13:28:33;;;;;;;;;;;9.40;99.90;;;;;;5023373;28;19921;-69
2023/04/13 13:31:00;;;;;;;;;;;9.50;99.90;;;;;;5023270;28;19921;-68
2023/04/13 13:33:27;;;;;;;;;;;9.70;99.90;;;;;;5024092;28;19929;-68
2023/04/13 13:35:53;;;;;;;;;;;9.80;99.90;;;;;;5023307;28;19921;-68
2023/04/13 13:38:20;;;;;;;;;;;9.90;99.90;;;;;;5023343;28;20180;-68
2023/04/13 13:40:47;;;;;;;;;;;9.80;99.90;;;;;;5023368;28;19989;-67
2023/04/13 13:43:16;;;;;;;;;;;9.80;99.90;;;;;;5023598;28;19921;-68
2023/04/13 13:45:44;;;;;;;;;;;9.60;99.90;;;;;;5022614;28;20106;-68
2023/04/13 13:48:11;;;;;;;;;;;9.60;99.90;;;;;;5022997;28;20208;-68
2023/04/13 13:50:38;;;;;;;;;;;9.70;99.90;;;;;;5023198;28;19957;-68
2023/04/13 13:53:04;;;;;;;;;;;10.00;99.90;;;;;;5023501;28;20004;-68
2023/04/13 13:55:31;;;;;;;;;;;10.20;99.90;;;;;;5023513;28;19921;-69
2023/04/13 13:57:58;;;;;;;;;;;10.20;99.90;;;;;;5023302;28;19993;-68
2023/04/13 14:00:24;;;;;;;;;;;10.30;99.90;;;;;;5023238;28;19992;-68
2023/04/13 14:02:52;;;;;;;;;;;10.30;99.90;;;;;;5024734;28;19984;-67
2023/04/13 14:05:21;;;;;;;;;;;10.30;99.90;;;;;;5022347;28;19921;-67
2023/04/13 14:07:48;;;;;;;;;;;10.20;99.90;;;;;;5023227;28;19988;-68
2023/04/13 14:10:14;;;;;;;;;;;10.10;99.90;;;;;;5022817;28;19949;-67
2023/04/13 14:12:45;;;;;;;;;;;10.00;99.90;;;;;;5023345;28;19960;-67
2023/04/13 14:15:12;;;;;;;;;;;10.00;99.90;;;;;;5022484;28;19921;-68
2023/04/13 14:17:39;;;;;;;;;;;9.80;99.90;;;;;;5022556;28;19980;-67
2023/04/13 14:20:08;;;;;;;;;;;9.70;99.90;;;;;;5023318;28;19980;-67
2023/04/13 14:22:35;;;;;;;;;;;9.50;99.90;;;;;;5023226;28;20152;-67
2023/04/13 14:25:02;;;;;;;;;;;9.50;99.90;;;;;;5023294;28;19990;-67
2023/04/13 14:27:29;;;;;;;;;;;9.50;99.90;;;;;;5022789;28;19929;-67
2023/04/13 14:29:55;;;;;;;;;;;9.60;99.90;;;;;;5023136;28;19957;-67
2023/04/13 14:32:22;;;;;;;;;;;9.70;99.90;;;;;;5022821;28;19921;-67